createdAt,value
2022-12-05T00:02:13.065Z,15.83
2022-12-05T00:04:41.815Z,16.10
2022-12-05T00:07:10.504Z,12.13
2022-12-05T00:09:39.155Z,14.97
2022-12-05T00:12:07.893Z,13.00
2022-12-05T00:14:36.493Z,14.90
2022-12-05T00:17:05.209Z,15.53
2022-12-05T00:19:35.188Z,14.27
2022-12-05T00:22:03.895Z,14.43
2022-12-05T00:24:32.551Z,18.87
2022-12-05T00:27:01.171Z,13.77
2022-12-05T00:29:29.792Z,12.87
2022-12-05T00:31:58.487Z,15.20
2022-12-05T00:34:27.176Z,18.47
2022-12-05T00:36:57.157Z,15.53
2022-12-05T00:39:25.800Z,17.90
2022-12-05T00:41:54.407Z,15.03
2022-12-05T00:44:22.983Z,14.47
2022-12-05T00:46:51.540Z,16.03
2022-12-05T00:49:20.107Z,17.83
2022-12-05T00:51:48.683Z,18.00
2022-12-05T00:54:18.751Z,16.67
2022-12-05T00:56:47.801Z,13.63
2022-12-05T00:59:18.970Z,18.93
2022-12-05T01:01:49.419Z,15.87
2022-12-05T01:04:20.586Z,16.40
2022-12-05T01:06:49.590Z,18.93
2022-12-05T01:09:21.095Z,19.60
2022-12-05T01:11:50.725Z,16.00
2022-12-05T01:14:21.179Z,17.10
2022-12-05T01:16:51.282Z,17.23
2022-12-05T01:19:22.199Z,15.50
2022-12-05T01:21:50.859Z,15.13
2022-12-05T01:24:22.132Z,17.30
2022-12-05T01:26:50.709Z,20.13
2022-12-05T01:29:21.401Z,16.40
2022-12-05T01:31:50.076Z,17.93
2022-12-05T01:34:19.171Z,18.97
2022-12-05T01:36:48.108Z,16.93
2022-12-05T01:39:17.054Z,22.33
2022-12-05T01:41:48.753Z,14.90
2022-12-05T01:44:54.687Z,18.67
2022-12-05T01:47:25.047Z,17.97
2022-12-05T01:49:54.359Z,16.77
2022-12-05T01:52:25.693Z,20.00
2022-12-05T01:54:57.249Z,16.37
2022-12-05T01:57:27.335Z,15.97
2022-12-05T02:00:00.019Z,19.80
2022-12-05T02:02:29.838Z,19.30
2022-12-05T02:05:03.772Z,15.40
2022-12-05T02:07:33.318Z,16.27
2022-12-05T02:10:01.963Z,15.97
2022-12-05T02:12:31.968Z,18.60
2022-12-05T02:15:09.464Z,13.60
2022-12-05T02:17:44.265Z,17.00
2022-12-05T02:20:22.486Z,14.70
2022-12-05T02:23:22.669Z,20.93
2022-12-05T02:26:29.771Z,13.80
2022-12-05T02:29:29.367Z,17.30
2022-12-05T02:32:06.163Z,17.47
2022-12-05T02:34:38.768Z,20.03
2022-12-05T02:37:11.011Z,17.77
2022-12-05T02:39:42.976Z,20.83
2022-12-05T02:42:14.686Z,18.60
2022-12-05T02:44:46.401Z,19.57
2022-12-05T02:47:19.055Z,17.77
2022-12-05T02:49:48.525Z,19.20
2022-12-05T02:52:17.991Z,17.30
2022-12-05T02:54:49.304Z,21.07
2022-12-05T02:57:18.207Z,18.10
2022-12-05T02:59:46.833Z,16.40
2022-12-05T03:02:26.140Z,21.70
2022-12-05T03:04:56.027Z,19.20
2022-12-05T03:07:24.840Z,20.93
2022-12-05T03:09:58.041Z,18.83
2022-12-05T03:12:28.399Z,22.53
2022-12-05T03:14:59.200Z,19.73
2022-12-05T03:17:31.787Z,21.47
2022-12-05T03:20:05.115Z,29.33
2022-12-05T03:22:36.711Z,16.90
2022-12-05T03:25:06.116Z,20.10
2022-12-05T03:27:41.134Z,18.70
2022-12-05T03:30:11.419Z,21.63
2022-12-05T03:32:44.272Z,22.90
2022-12-05T03:35:17.708Z,18.90
2022-12-05T03:37:48.944Z,21.47
2022-12-05T03:40:27.151Z,21.93
2022-12-05T03:43:02.719Z,19.20
2022-12-05T03:45:36.360Z,22.00
2022-12-05T03:48:12.008Z,17.27
2022-12-05T03:50:43.487Z,18.27
2022-12-05T03:53:20.038Z,19.33
2022-12-05T03:55:54.512Z,19.87
2022-12-05T03:58:27.868Z,18.00
2022-12-05T04:00:58.842Z,21.50
2022-12-05T04:03:39.338Z,16.90
2022-12-05T04:06:14.139Z,18.60
2022-12-05T04:08:46.221Z,19.27
2022-12-05T04:11:18.139Z,15.40
2022-12-05T04:13:48.901Z,18.00
2022-12-05T04:16:39.576Z,17.83
2022-12-05T04:19:12.729Z,15.87
2022-12-05T04:21:43.727Z,19.63
2022-12-05T04:24:32.427Z,18.50
2022-12-05T04:27:10.351Z,18.23
2022-12-05T04:29:44.256Z,15.17
2022-12-05T04:32:14.596Z,18.07
2022-12-05T04:34:50.415Z,14.87
2022-12-05T04:37:22.817Z,16.43
2022-12-05T04:39:55.467Z,20.13
2022-12-05T04:42:27.586Z,22.03
2022-12-05T04:44:58.555Z,20.63
2022-12-05T04:47:30.593Z,20.20
2022-12-05T04:50:01.469Z,22.73
2022-12-05T04:52:30.716Z,19.07
2022-12-05T04:55:03.612Z,17.30
2022-12-05T04:57:36.116Z,18.77
2022-12-05T05:00:05.947Z,18.63
2022-12-05T05:02:36.539Z,15.20
2022-12-05T05:05:13.745Z,18.00
2022-12-05T05:07:46.337Z,17.87
2022-12-05T05:10:17.794Z,16.23
2022-12-05T05:12:46.498Z,16.37
2022-12-05T05:15:15.158Z,20.83
2022-12-05T05:17:43.744Z,22.23
2022-12-05T05:20:27.120Z,17.37
2022-12-05T05:22:56.650Z,18.67
2022-12-05T05:25:25.917Z,17.10
2022-12-05T05:27:56.591Z,16.97
2022-12-05T05:30:26.033Z,19.23
2022-12-05T05:32:54.890Z,21.17
2022-12-05T05:35:24.851Z,17.47
2022-12-05T05:37:53.443Z,24.33
2022-12-05T05:40:22.071Z,18.23
2022-12-05T05:42:51.580Z,20.17
2022-12-05T05:45:20.201Z,19.57
2022-12-05T05:47:50.048Z,17.50
2022-12-05T05:50:21.821Z,21.40
2022-12-05T05:52:52.140Z,17.40
2022-12-05T05:55:20.959Z,16.37
2022-12-05T05:57:49.554Z,14.17
2022-12-05T06:00:18.717Z,22.73
2022-12-05T06:02:47.423Z,15.13
2022-12-05T06:05:16.125Z,16.57
2022-12-05T06:07:44.747Z,20.40
2022-12-05T06:10:14.784Z,17.07
2022-12-05T06:12:43.460Z,16.77
2022-12-05T06:15:12.481Z,19.80
2022-12-05T06:17:41.132Z,16.43
2022-12-05T06:20:10.426Z,15.97
2022-12-05T06:22:39.044Z,21.03
2022-12-05T06:25:08.792Z,16.47
2022-12-05T06:27:38.707Z,17.20
2022-12-05T06:30:08.570Z,16.73
2022-12-05T06:32:37.214Z,20.47
2022-12-05T06:35:15.070Z,15.20
2022-12-05T06:37:44.275Z,17.17
2022-12-05T06:40:13.785Z,19.23
2022-12-05T06:42:43.863Z,21.63
2022-12-05T06:45:13.010Z,18.10
2022-12-05T06:47:41.613Z,18.17
2022-12-05T06:50:10.947Z,18.20
2022-12-05T06:52:39.637Z,18.93
2022-12-05T06:55:08.741Z,19.33
2022-12-05T06:57:37.483Z,19.63
2022-12-05T07:00:27.025Z,17.33
2022-12-05T07:02:55.770Z,23.10
2022-12-05T07:05:24.349Z,19.63
2022-12-05T07:07:53.068Z,27.10
2022-12-05T07:10:21.752Z,16.70
2022-12-05T07:12:50.427Z,19.57
2022-12-05T07:15:20.455Z,22.37
2022-12-05T07:17:49.046Z,20.60
2022-12-05T07:20:18.346Z,20.03
2022-12-05T07:22:47.004Z,20.93
2022-12-05T07:25:16.908Z,15.73
2022-12-05T07:27:45.474Z,16.70
2022-12-05T07:30:14.787Z,16.17
2022-12-05T07:32:44.733Z,16.90
2022-12-05T07:35:13.385Z,18.20
2022-12-05T07:37:41.999Z,13.23
2022-12-05T07:40:12.085Z,17.60
2022-12-05T07:42:40.745Z,17.80
2022-12-05T07:45:10.745Z,16.00
2022-12-05T07:47:39.433Z,17.23
2022-12-05T07:50:10.136Z,19.20
2022-12-05T07:52:38.828Z,19.57
2022-12-05T07:55:08.732Z,21.90
2022-12-05T07:57:37.435Z,23.23
2022-12-05T08:00:07.638Z,18.30
2022-12-05T08:02:40.481Z,16.73
2022-12-05T08:05:10.878Z,15.73
2022-12-05T08:07:39.601Z,17.13
2022-12-05T08:10:09.471Z,54.00
2022-12-05T08:12:38.861Z,17.90
2022-12-05T08:15:09.100Z,17.43
2022-12-05T08:17:37.689Z,17.70
2022-12-05T08:20:07.856Z,16.13
2022-12-05T08:22:37.822Z,16.87
2022-12-05T08:25:07.198Z,17.40
2022-12-05T08:27:35.811Z,20.20
2022-12-05T08:30:05.447Z,24.47
2022-12-05T08:32:34.091Z,16.83
2022-12-05T08:35:02.722Z,15.60
2022-12-05T08:37:31.360Z,15.27
2022-12-05T08:40:01.327Z,17.53
2022-12-05T08:42:29.995Z,16.13
2022-12-05T08:44:58.879Z,19.47
2022-12-05T08:47:28.243Z,16.77
2022-12-05T08:49:57.094Z,18.43
2022-12-05T08:52:25.954Z,14.70
2022-12-05T08:54:54.554Z,16.30
2022-12-05T08:57:24.549Z,14.70
2022-12-05T08:59:53.219Z,13.93
2022-12-05T09:02:21.989Z,11.57
2022-12-05T09:04:54.018Z,14.93
2022-12-05T09:07:22.947Z,19.50
2022-12-05T09:09:52.353Z,23.23
2022-12-05T09:12:20.949Z,18.10
2022-12-05T09:14:50.965Z,15.77
2022-12-05T09:17:19.668Z,13.30
2022-12-05T09:19:52.187Z,13.90
2022-12-05T09:22:24.163Z,13.27
2022-12-05T09:24:52.829Z,15.43
2022-12-05T09:27:21.471Z,15.43
2022-12-05T09:29:51.478Z,17.17
2022-12-05T09:32:20.147Z,14.20
2022-12-05T09:34:48.806Z,19.90
2022-12-05T09:37:38.069Z,27.17
2022-12-05T09:40:08.334Z,17.10
2022-12-05T09:42:44.895Z,13.43
2022-12-05T09:45:19.656Z,12.50
2022-12-05T09:47:54.637Z,13.80
2022-12-05T09:50:24.882Z,13.37
2022-12-05T09:53:04.744Z,11.57
2022-12-05T09:55:41.256Z,15.23
2022-12-05T09:58:20.934Z,11.60
2022-12-05T10:00:53.798Z,11.33
2022-12-05T10:03:27.876Z,13.63
2022-12-05T10:06:07.990Z,14.17
2022-12-05T10:08:48.727Z,11.40
2022-12-05T10:11:20.493Z,14.40
2022-12-05T10:13:54.248Z,10.63
2022-12-05T10:16:30.976Z,15.70
2022-12-05T10:19:02.018Z,13.60
2022-12-05T10:21:33.004Z,11.10
2022-12-05T10:24:03.014Z,12.20
2022-12-05T10:26:37.834Z,10.90
2022-12-05T10:29:16.188Z,11.37
2022-12-05T10:31:46.857Z,10.70
2022-12-05T10:34:20.231Z,10.50
2022-12-05T10:37:03.800Z,14.13
2022-12-05T10:39:32.476Z,10.70
2022-12-05T10:42:01.139Z,11.20
2022-12-05T10:44:29.757Z,11.87
2022-12-05T10:46:59.795Z,11.43
2022-12-05T10:49:29.137Z,10.93
2022-12-05T10:51:57.783Z,10.17
2022-12-05T10:54:31.581Z,11.00
2022-12-05T10:57:00.326Z,13.80
2022-12-05T10:59:47.687Z,12.23
2022-12-05T11:02:23.787Z,12.87
2022-12-05T11:04:52.512Z,12.40
2022-12-05T11:07:31.901Z,11.17
2022-12-05T11:10:02.071Z,11.70
2022-12-05T11:12:37.990Z,10.47
2022-12-05T11:15:22.344Z,11.23
2022-12-05T11:17:53.703Z,11.60
2022-12-05T11:20:39.009Z,11.07
2022-12-05T11:23:28.202Z,13.03
2022-12-05T11:25:57.607Z,9.70
2022-12-05T11:28:35.412Z,11.83
2022-12-05T11:31:06.851Z,12.63
2022-12-05T11:33:37.558Z,11.53
2022-12-05T11:36:13.571Z,11.90
2022-12-05T11:38:42.519Z,13.60
2022-12-05T11:41:34.076Z,12.50
2022-12-05T11:44:15.749Z,10.10
2022-12-05T11:46:56.630Z,11.43
2022-12-05T11:49:37.985Z,11.77
2022-12-05T11:52:15.461Z,14.57
2022-12-05T11:55:09.960Z,15.00
2022-12-05T11:58:00.500Z,16.30
2022-12-05T12:00:35.598Z,10.60
2022-12-05T12:03:32.602Z,10.27
2022-12-05T12:06:21.511Z,9.23
2022-12-05T12:09:00.112Z,10.63
2022-12-05T12:11:33.327Z,11.57
2022-12-05T12:14:09.043Z,11.73
2022-12-05T12:16:54.888Z,12.50
2022-12-05T12:19:42.663Z,11.07
2022-12-05T12:22:26.869Z,11.97
2022-12-05T12:25:06.407Z,14.23
2022-12-05T12:27:44.626Z,9.77
2022-12-05T12:30:16.983Z,11.37
2022-12-05T12:32:54.820Z,13.10
2022-12-05T12:35:29.069Z,11.50
2022-12-05T12:38:22.239Z,13.63
2022-12-05T12:40:54.669Z,12.30
2022-12-05T12:43:54.061Z,12.83
2022-12-05T12:46:33.899Z,11.30
2022-12-05T12:49:12.420Z,12.80
2022-12-05T12:51:45.794Z,12.67
2022-12-05T12:54:47.065Z,10.07
2022-12-05T12:57:20.635Z,6.30
2022-12-05T13:00:02.534Z,6.20
2022-12-05T13:02:37.949Z,5.67
2022-12-05T13:05:10.044Z,4.10
2022-12-05T13:07:42.577Z,10.60
2022-12-05T13:10:20.979Z,8.20
2022-12-05T13:12:50.118Z,11.37
2022-12-05T13:15:21.344Z,7.70
2022-12-05T13:17:50.381Z,7.53
2022-12-05T13:20:22.219Z,10.63
2022-12-05T13:22:51.587Z,3.67
2022-12-05T13:25:23.717Z,5.67
2022-12-05T13:27:56.472Z,2.77
2022-12-05T13:30:28.062Z,3.70
2022-12-05T13:32:58.592Z,4.87
2022-12-05T13:35:49.412Z,5.80
2022-12-05T13:38:40.204Z,5.27
2022-12-05T13:41:27.559Z,3.50
2022-12-05T13:44:05.736Z,3.73
2022-12-05T13:46:37.312Z,12.13
2022-12-05T13:49:14.288Z,2.97
2022-12-05T13:51:46.060Z,3.17
2022-12-05T13:54:16.954Z,3.40
2022-12-05T13:56:52.230Z,2.67
2022-12-05T13:59:59.904Z,3.90
2022-12-05T14:03:04.760Z,2.67
2022-12-05T14:05:44.398Z,2.50
2022-12-05T14:08:46.351Z,1.90
2022-12-05T14:11:15.311Z,2.30
2022-12-05T14:13:46.084Z,2.27
2022-12-05T14:16:49.459Z,1.50
2022-12-05T14:19:53.327Z,1.70
2022-12-05T14:22:42.314Z,2.10
2022-12-05T14:25:17.899Z,2.00
2022-12-05T14:27:51.292Z,1.80
2022-12-05T14:30:25.350Z,1.63
2022-12-05T14:32:55.251Z,5.93
2022-12-05T14:35:28.547Z,2.13
2022-12-05T14:37:58.715Z,2.63
2022-12-05T14:40:32.262Z,2.40
2022-12-05T14:43:03.319Z,2.23
2022-12-05T14:45:36.232Z,1.60
2022-12-05T14:48:06.648Z,2.17
2022-12-05T14:50:40.129Z,3.23
2022-12-05T14:53:36.117Z,7.93
2022-12-05T14:56:16.205Z,1.80
2022-12-05T14:58:49.233Z,2.10
2022-12-05T15:01:22.349Z,2.27
2022-12-05T15:04:17.327Z,3.37
2022-12-05T15:06:49.097Z,2.83
2022-12-05T15:09:41.730Z,9.67
2022-12-05T15:12:14.711Z,9.83
2022-12-05T15:14:49.324Z,5.57
2022-12-05T15:17:24.525Z,11.20
2022-12-05T15:19:57.661Z,7.57
2022-12-05T15:22:28.123Z,10.97
2022-12-05T15:24:57.087Z,10.60
2022-12-05T15:27:25.962Z,8.03
2022-12-05T15:29:56.449Z,11.77
2022-12-05T15:32:28.777Z,10.13
2022-12-05T15:35:01.381Z,6.40
2022-12-05T15:37:33.781Z,15.00
2022-12-05T15:40:04.888Z,13.10
2022-12-05T15:42:42.071Z,9.33
2022-12-05T15:45:21.014Z,13.93
2022-12-05T15:47:53.669Z,16.07
2022-12-05T15:50:27.348Z,12.33
2022-12-05T15:52:58.600Z,10.87
2022-12-05T15:55:30.226Z,12.70
2022-12-05T15:58:09.664Z,10.87
2022-12-05T16:00:44.404Z,14.40
2022-12-05T16:03:17.176Z,14.30
2022-12-05T16:05:50.312Z,12.90
2022-12-05T16:08:19.001Z,16.07
2022-12-05T16:10:47.716Z,11.00
2022-12-05T16:13:17.844Z,14.43
2022-12-05T16:15:52.726Z,12.07
2022-12-05T16:18:27.652Z,14.77
2022-12-05T16:20:56.457Z,13.07
2022-12-05T16:23:28.298Z,16.80
2022-12-05T16:26:12.462Z,13.00
2022-12-05T16:28:41.172Z,15.03
2022-12-05T16:31:17.217Z,12.00
2022-12-05T16:33:47.301Z,11.30
2022-12-05T16:36:23.092Z,14.80
2022-12-05T16:38:51.770Z,14.80
2022-12-05T16:41:22.328Z,12.10
2022-12-05T16:43:52.958Z,13.37
2022-12-05T16:46:43.837Z,17.48
2022-12-05T16:49:36.377Z,13.33
2022-12-05T16:52:14.598Z,13.17
2022-12-05T16:54:43.804Z,14.83
2022-12-05T16:57:14.556Z,14.70
2022-12-05T16:59:45.431Z,12.60
2022-12-05T17:02:15.765Z,19.63
2022-12-05T17:04:46.799Z,22.50
2022-12-05T17:07:15.395Z,15.33
2022-12-05T17:09:43.979Z,17.07
2022-12-05T17:12:16.520Z,17.57
2022-12-05T17:14:47.118Z,15.90
2022-12-05T17:17:18.088Z,15.10
2022-12-05T17:19:48.028Z,14.40
2022-12-05T17:22:17.063Z,17.13
2022-12-05T17:24:45.685Z,16.20
2022-12-05T17:27:14.328Z,17.60
2022-12-05T17:29:42.935Z,13.53
2022-12-05T17:32:11.748Z,16.67
2022-12-05T17:34:40.410Z,17.23
2022-12-05T17:37:10.396Z,18.93
2022-12-05T17:39:39.098Z,20.07
2022-12-05T17:42:08.417Z,15.17
2022-12-05T17:44:37.192Z,14.00
2022-12-05T17:47:08.128Z,16.13
2022-12-05T17:49:37.102Z,16.40
2022-12-05T17:52:22.289Z,19.90
2022-12-05T17:54:52.875Z,14.00
2022-12-05T17:57:21.602Z,20.20
2022-12-05T17:59:50.281Z,18.40
2022-12-05T18:02:19.971Z,15.20
2022-12-05T18:04:48.612Z,16.87
2022-12-05T18:07:19.464Z,17.80
2022-12-05T18:09:48.241Z,15.67
2022-12-05T18:12:18.275Z,17.90
2022-12-05T18:14:47.110Z,15.77
2022-12-05T18:17:15.746Z,15.53
2022-12-05T18:19:44.364Z,15.77
2022-12-05T18:22:14.746Z,16.77
2022-12-05T18:24:45.757Z,15.80
2022-12-05T18:27:14.419Z,16.03
2022-12-05T18:29:44.507Z,15.50
2022-12-05T18:32:13.300Z,18.77
2022-12-05T18:34:42.036Z,15.20
2022-12-05T18:37:11.357Z,15.60
2022-12-05T18:39:40.399Z,15.40
2022-12-05T18:42:15.092Z,13.87
2022-12-05T18:44:45.545Z,14.60
2022-12-05T18:47:14.138Z,32.73
2022-12-05T18:49:42.971Z,13.00
2022-12-05T18:52:11.601Z,14.93
2022-12-05T18:54:40.230Z,31.40
2022-12-05T18:57:08.935Z,30.13
2022-12-05T18:59:37.607Z,31.67
2022-12-05T19:02:07.704Z,29.00
2022-12-05T19:04:36.671Z,20.30
2022-12-05T19:07:05.350Z,23.73
2022-12-05T19:09:35.775Z,25.50
2022-12-05T19:12:04.808Z,22.57
2022-12-05T19:14:35.133Z,20.60
2022-12-05T19:17:03.879Z,23.03
2022-12-05T19:19:34.019Z,20.03
2022-12-05T19:22:02.665Z,19.60
2022-12-05T19:24:31.323Z,29.03
2022-12-05T19:27:00.160Z,19.77
2022-12-05T19:29:28.900Z,19.57
2022-12-05T19:31:57.571Z,22.07
2022-12-05T19:34:26.444Z,25.33
2022-12-05T19:36:56.556Z,23.53
2022-12-05T19:39:27.023Z,23.37
2022-12-05T19:41:57.539Z,30.83
2022-12-05T19:44:27.022Z,25.43
2022-12-05T19:46:55.703Z,27.33
2022-12-05T19:49:24.366Z,27.77
2022-12-05T19:51:53.055Z,29.93
2022-12-05T19:54:24.139Z,27.73
2022-12-05T19:56:58.062Z,30.73
2022-12-05T19:59:26.740Z,25.70
2022-12-05T20:01:55.506Z,33.00
2022-12-05T20:04:24.180Z,31.30
2022-12-05T20:06:52.955Z,18.93
2022-12-05T20:09:23.499Z,39.60
2022-12-05T20:11:55.554Z,27.33
2022-12-05T20:14:25.183Z,22.20
2022-12-05T20:16:53.996Z,20.53
2022-12-05T20:19:22.832Z,22.80
2022-12-05T20:21:51.448Z,19.30
2022-12-05T20:24:20.038Z,18.63
2022-12-05T20:26:49.993Z,18.63
2022-12-05T20:29:18.749Z,20.90
2022-12-05T20:31:47.511Z,20.13
2022-12-05T20:34:16.227Z,17.30
2022-12-05T20:36:44.878Z,19.90
2022-12-05T20:39:15.463Z,17.80
2022-12-05T20:41:44.256Z,18.83
2022-12-05T20:44:15.453Z,19.43
2022-12-05T20:46:44.382Z,19.03
2022-12-05T20:49:13.083Z,17.10
2022-12-05T20:51:43.730Z,18.80
2022-12-05T20:54:13.673Z,20.90
2022-12-05T20:56:42.302Z,20.00
2022-12-05T20:59:14.005Z,17.50
2022-12-05T21:01:43.029Z,15.67
2022-12-05T21:04:12.477Z,20.87
2022-12-05T21:06:42.765Z,24.27
2022-12-05T21:09:15.414Z,15.80
2022-12-05T21:11:44.462Z,18.40
2022-12-05T21:14:14.787Z,19.10
2022-12-05T21:16:43.414Z,18.80
2022-12-05T21:19:12.442Z,20.23
2022-12-05T21:21:41.103Z,17.43
2022-12-05T21:24:10.910Z,16.13
2022-12-05T21:26:40.619Z,24.13
2022-12-05T21:29:10.558Z,24.20
2022-12-05T21:31:42.429Z,19.20
2022-12-05T21:34:15.239Z,18.33
2022-12-05T21:36:44.550Z,18.97
2022-12-05T21:39:13.261Z,18.20
2022-12-05T21:41:42.109Z,21.57
2022-12-05T21:44:10.769Z,20.67
2022-12-05T21:46:40.772Z,20.60
2022-12-05T21:49:09.536Z,16.98
2022-12-05T21:51:38.360Z,17.20
2022-12-05T21:54:07.130Z,18.10
2022-12-05T21:56:35.725Z,20.13
2022-12-05T21:59:04.458Z,18.53
2022-12-05T22:01:33.146Z,16.30
2022-12-05T22:04:03.344Z,17.83
2022-12-05T22:06:33.853Z,14.50
2022-12-05T22:09:03.087Z,16.93
2022-12-05T22:11:31.951Z,18.30
2022-12-05T22:14:00.593Z,15.90
2022-12-05T22:16:33.256Z,16.53
2022-12-05T22:19:04.406Z,17.53
2022-12-05T22:21:34.243Z,18.60
2022-12-05T22:24:03.003Z,18.80
2022-12-05T22:26:31.635Z,15.17
2022-12-05T22:29:00.409Z,20.90
2022-12-05T22:31:29.162Z,16.40
2022-12-05T22:33:57.841Z,21.80
2022-12-05T22:36:28.069Z,19.63
2022-12-05T22:38:57.020Z,17.10
2022-12-05T22:41:27.473Z,33.33
2022-12-05T22:43:57.620Z,17.63
2022-12-05T22:46:27.709Z,19.27
2022-12-05T22:48:56.666Z,19.43
2022-12-05T22:51:27.304Z,18.00
2022-12-05T22:53:57.816Z,18.33
2022-12-05T22:56:27.742Z,19.93
2022-12-05T22:58:57.781Z,16.20
2022-12-05T23:01:27.823Z,17.53
2022-12-05T23:03:57.816Z,23.80
2022-12-05T23:06:27.137Z,17.30
2022-12-05T23:08:57.628Z,16.57
2022-12-05T23:11:27.410Z,17.80
2022-12-05T23:14:01.324Z,17.93
2022-12-05T23:16:32.188Z,17.87
2022-12-05T23:19:02.943Z,22.30
2022-12-05T23:21:33.502Z,19.20
2022-12-05T23:24:05.204Z,20.87
2022-12-05T23:26:36.720Z,21.53
2022-12-05T23:29:05.438Z,29.07
2022-12-05T23:31:34.235Z,20.07
2022-12-05T23:34:04.232Z,22.53
2022-12-05T23:36:33.738Z,19.20
2022-12-05T23:39:04.048Z,18.73
2022-12-05T23:41:32.638Z,18.57
2022-12-05T23:44:01.270Z,21.20
2022-12-05T23:46:30.749Z,16.87
2022-12-05T23:48:59.716Z,16.57
2022-12-05T23:51:29.450Z,18.40
2022-12-05T23:53:59.296Z,19.00
2022-12-05T23:56:30.933Z,17.40
2022-12-05T23:58:59.697Z,21.97
